Airports Norway Trondheim Airport Værnes

Trondheim Airport Værnes (ENVA / TRD)

Facts about Trondheim Airport Værnes

Name Trondheim Airport Værnes
City Trondheim
Country Norway
ICAO code ENVA
IATA code TRD
Elevation 17.0688 meters (56 feet)

Weather

METAR

Metar data retrieved Sunday, 21 July 2024 at 19:55 UTC (1 minutes ago)

ENVA 211920Z 13008KT CAVOK 25/13 Q1006 RMK WIND 670FT 15016KT

Live traffic

Navigraph Charts (account required)